sensor_id;sensor_type;location;lat;lon;timestamp;P1;durP1;ratioP1;P2;durP2;ratioP2
10902;SDS011;5504;47.312;11.060;2023-09-19T00:00:37;6.20;;;3.33;;
10902;SDS011;5504;47.312;11.060;2023-09-19T00:03:03;3.60;;;3.30;;
10902;SDS011;5504;47.312;11.060;2023-09-19T00:05:34;3.43;;;3.13;;
10902;SDS011;5504;47.312;11.060;2023-09-19T00:08:00;3.57;;;3.27;;
10902;SDS011;5504;47.312;11.060;2023-09-19T00:10:29;4.13;;;3.30;;
10902;SDS011;5504;47.312;11.060;2023-09-19T00:12:57;4.20;;;3.80;;
10902;SDS011;5504;47.312;11.060;2023-09-19T00:15:30;3.97;;;3.53;;
10902;SDS011;5504;47.312;11.060;2023-09-19T00:18:01;6.03;;;3.50;;
10902;SDS011;5504;47.312;11.060;2023-09-19T00:20:26;4.57;;;3.40;;
10902;SDS011;5504;47.312;11.060;2023-09-19T00:22:53;4.40;;;3.57;;
10902;SDS011;5504;47.312;11.060;2023-09-19T00:25:21;4.20;;;2.90;;
10902;SDS011;5504;47.312;11.060;2023-09-19T00:27:47;4.23;;;3.00;;
10902;SDS011;5504;47.312;11.060;2023-09-19T00:30:15;3.57;;;3.20;;
10902;SDS011;5504;47.312;11.060;2023-09-19T00:32:44;3.83;;;3.10;;
10902;SDS011;5504;47.312;11.060;2023-09-19T00:35:15;4.73;;;3.53;;
10902;SDS011;5504;47.312;11.060;2023-09-19T00:37:41;3.63;;;3.23;;
10902;SDS011;5504;47.312;11.060;2023-09-19T00:40:08;4.03;;;3.37;;
10902;SDS011;5504;47.312;11.060;2023-09-19T00:42:47;6.33;;;3.47;;
10902;SDS011;5504;47.312;11.060;2023-09-19T00:45:14;4.67;;;3.20;;
10902;SDS011;5504;47.312;11.060;2023-09-19T00:47:42;4.13;;;3.73;;
10902;SDS011;5504;47.312;11.060;2023-09-19T00:50:11;8.00;;;3.50;;
10902;SDS011;5504;47.312;11.060;2023-09-19T00:52:39;4.63;;;3.27;;
10902;SDS011;5504;47.312;11.060;2023-09-19T00:55:10;3.50;;;2.97;;
10902;SDS011;5504;47.312;11.060;2023-09-19T00:57:37;6.23;;;3.50;;
10902;SDS011;5504;47.312;11.060;2023-09-19T01:00:06;4.30;;;3.50;;
10902;SDS011;5504;47.312;11.060;2023-09-19T01:02:34;3.90;;;3.50;;
10902;SDS011;5504;47.312;11.060;2023-09-19T01:05:00;4.77;;;3.93;;
10902;SDS011;5504;47.312;11.060;2023-09-19T01:07:27;4.70;;;3.27;;
10902;SDS011;5504;47.312;11.060;2023-09-19T01:10:15;4.27;;;3.23;;
10902;SDS011;5504;47.312;11.060;2023-09-19T01:18:46;2.30;;;2.10;;
10902;SDS011;5504;47.312;11.060;2023-09-19T01:21:52;3.50;;;2.50;;
10902;SDS011;5504;47.312;11.060;2023-09-19T01:24:54;3.57;;;2.60;;
10902;SDS011;5504;47.312;11.060;2023-09-19T01:30:31;2.67;;;2.10;;
10902;SDS011;5504;47.312;11.060;2023-09-19T01:33:01;4.70;;;2.67;;
10902;SDS011;5504;47.312;11.060;2023-09-19T01:35:29;2.33;;;2.13;;
10902;SDS011;5504;47.312;11.060;2023-09-19T01:37:54;2.60;;;2.20;;
10902;SDS011;5504;47.312;11.060;2023-09-19T01:40:20;3.20;;;2.30;;
10902;SDS011;5504;47.312;11.060;2023-09-19T01:45:31;3.33;;;2.17;;
10902;SDS011;5504;47.312;11.060;2023-09-19T01:51:06;2.90;;;2.50;;
10902;SDS011;5504;47.312;11.060;2023-09-19T01:56:20;3.50;;;2.30;;
10902;SDS011;5504;47.312;11.060;2023-09-19T01:58:51;3.47;;;2.60;;
10902;SDS011;5504;47.312;11.060;2023-09-19T02:01:22;3.63;;;2.50;;
10902;SDS011;5504;47.312;11.060;2023-09-19T02:03:49;4.60;;;2.73;;
10902;SDS011;5504;47.312;11.060;2023-09-19T02:06:16;3.20;;;2.60;;
10902;SDS011;5504;47.312;11.060;2023-09-19T02:08:43;3.20;;;2.57;;
10902;SDS011;5504;47.312;11.060;2023-09-19T02:11:12;3.07;;;2.70;;
10902;SDS011;5504;47.312;11.060;2023-09-19T02:13:39;2.50;;;2.27;;
10902;SDS011;5504;47.312;11.060;2023-09-19T02:16:06;3.43;;;2.40;;
10902;SDS011;5504;47.312;11.060;2023-09-19T02:18:32;3.37;;;2.30;;
10902;SDS011;5504;47.312;11.060;2023-09-19T02:21:00;4.03;;;2.40;;
10902;SDS011;5504;47.312;11.060;2023-09-19T02:23:26;4.80;;;2.40;;
10902;SDS011;5504;47.312;11.060;2023-09-19T02:26:01;3.80;;;2.40;;
10902;SDS011;5504;47.312;11.060;2023-09-19T02:28:27;2.50;;;2.30;;
10902;SDS011;5504;47.312;11.060;2023-09-19T02:30:57;3.27;;;2.37;;
10902;SDS011;5504;47.312;11.060;2023-09-19T02:33:23;2.70;;;2.30;;
10902;SDS011;5504;47.312;11.060;2023-09-19T02:35:49;2.30;;;1.97;;
10902;SDS011;5504;47.312;11.060;2023-09-19T02:38:15;3.97;;;1.90;;
10902;SDS011;5504;47.312;11.060;2023-09-19T02:40:46;2.33;;;1.97;;
10902;SDS011;5504;47.312;11.060;2023-09-19T02:43:11;3.63;;;2.00;;
10902;SDS011;5504;47.312;11.060;2023-09-19T02:45:37;3.50;;;1.80;;
10902;SDS011;5504;47.312;11.060;2023-09-19T02:48:04;2.93;;;1.97;;
10902;SDS011;5504;47.312;11.060;2023-09-19T02:50:30;4.33;;;2.10;;
10902;SDS011;5504;47.312;11.060;2023-09-19T02:52:55;2.63;;;2.23;;
10902;SDS011;5504;47.312;11.060;2023-09-19T02:55:21;2.33;;;2.13;;
10902;SDS011;5504;47.312;11.060;2023-09-19T02:57:51;3.37;;;2.30;;
10902;SDS011;5504;47.312;11.060;2023-09-19T03:00:22;3.67;;;2.40;;
10902;SDS011;5504;47.312;11.060;2023-09-19T03:05:24;2.27;;;1.80;;
10902;SDS011;5504;47.312;11.060;2023-09-19T03:07:51;5.07;;;2.30;;
10902;SDS011;5504;47.312;11.060;2023-09-19T03:10:17;2.87;;;2.03;;
10902;SDS011;5504;47.312;11.060;2023-09-19T03:12:43;2.13;;;1.90;;
10902;SDS011;5504;47.312;11.060;2023-09-19T03:15:09;2.73;;;1.97;;
10902;SDS011;5504;47.312;11.060;2023-09-19T03:17:35;1.70;;;1.60;;
10902;SDS011;5504;47.312;11.060;2023-09-19T03:20:01;2.40;;;2.00;;
10902;SDS011;5504;47.312;11.060;2023-09-19T03:22:29;2.77;;;1.70;;
10902;SDS011;5504;47.312;11.060;2023-09-19T03:24:54;2.00;;;1.90;;
10902;SDS011;5504;47.312;11.060;2023-09-19T03:27:20;2.63;;;1.80;;
10902;SDS011;5504;47.312;11.060;2023-09-19T03:29:46;2.03;;;1.70;;
10902;SDS011;5504;47.312;11.060;2023-09-19T03:32:12;2.03;;;1.70;;
10902;SDS011;5504;47.312;11.060;2023-09-19T03:34:38;2.40;;;1.90;;
10902;SDS011;5504;47.312;11.060;2023-09-19T03:37:08;2.23;;;1.77;;
10902;SDS011;5504;47.312;11.060;2023-09-19T03:39:34;2.90;;;1.87;;
10902;SDS011;5504;47.312;11.060;2023-09-19T03:42:01;2.87;;;2.00;;
10902;SDS011;5504;47.312;11.060;2023-09-19T03:44:29;2.43;;;2.10;;
10902;SDS011;5504;47.312;11.060;2023-09-19T03:46:55;2.33;;;1.93;;
10902;SDS011;5504;47.312;11.060;2023-09-19T03:49:22;3.50;;;1.87;;
10902;SDS011;5504;47.312;11.060;2023-09-19T03:51:48;3.83;;;2.00;;
10902;SDS011;5504;47.312;11.060;2023-09-19T03:54:14;3.07;;;1.90;;
10902;SDS011;5504;47.312;11.060;2023-09-19T03:56:39;2.97;;;1.60;;
10902;SDS011;5504;47.312;11.060;2023-09-19T03:59:05;4.57;;;1.97;;
10902;SDS011;5504;47.312;11.060;2023-09-19T04:01:31;2.57;;;1.87;;
10902;SDS011;5504;47.312;11.060;2023-09-19T04:03:58;2.27;;;1.70;;
10902;SDS011;5504;47.312;11.060;2023-09-19T04:06:32;2.07;;;1.60;;
10902;SDS011;5504;47.312;11.060;2023-09-19T04:09:02;3.83;;;2.00;;
10902;SDS011;5504;47.312;11.060;2023-09-19T04:11:28;2.23;;;1.80;;
10902;SDS011;5504;47.312;11.060;2023-09-19T04:13:58;2.80;;;2.03;;
10902;SDS011;5504;47.312;11.060;2023-09-19T04:16:24;3.37;;;1.80;;
10902;SDS011;5504;47.312;11.060;2023-09-19T04:18:50;2.37;;;1.90;;
10902;SDS011;5504;47.312;11.060;2023-09-19T04:21:16;2.50;;;1.83;;
10902;SDS011;5504;47.312;11.060;2023-09-19T04:23:42;2.83;;;1.80;;
10902;SDS011;5504;47.312;11.060;2023-09-19T04:26:08;1.90;;;1.70;;
10902;SDS011;5504;47.312;11.060;2023-09-19T04:28:33;1.93;;;1.70;;
10902;SDS011;5504;47.312;11.060;2023-09-19T04:31:00;2.73;;;1.97;;
10902;SDS011;5504;47.312;11.060;2023-09-19T04:33:26;2.80;;;1.70;;
10902;SDS011;5504;47.312;11.060;2023-09-19T04:35:55;2.33;;;1.90;;
10902;SDS011;5504;47.312;11.060;2023-09-19T04:38:21;2.10;;;1.50;;
10902;SDS011;5504;47.312;11.060;2023-09-19T04:40:47;1.97;;;1.60;;
10902;SDS011;5504;47.312;11.060;2023-09-19T04:43:13;1.70;;;1.60;;
10902;SDS011;5504;47.312;11.060;2023-09-19T04:45:40;1.80;;;1.70;;
10902;SDS011;5504;47.312;11.060;2023-09-19T04:48:06;2.60;;;1.70;;
10902;SDS011;5504;47.312;11.060;2023-09-19T04:50:32;2.30;;;1.83;;
10902;SDS011;5504;47.312;11.060;2023-09-19T04:52:59;2.10;;;1.87;;
10902;SDS011;5504;47.312;11.060;2023-09-19T04:55:26;4.30;;;2.27;;
10902;SDS011;5504;47.312;11.060;2023-09-19T04:57:52;2.30;;;2.10;;
10902;SDS011;5504;47.312;11.060;2023-09-19T05:00:22;3.57;;;2.10;;
10902;SDS011;5504;47.312;11.060;2023-09-19T05:02:55;3.17;;;1.90;;
10902;SDS011;5504;47.312;11.060;2023-09-19T05:05:22;4.40;;;1.80;;
10902;SDS011;5504;47.312;11.060;2023-09-19T05:07:48;2.70;;;1.70;;
10902;SDS011;5504;47.312;11.060;2023-09-19T05:10:15;3.20;;;1.70;;
10902;SDS011;5504;47.312;11.060;2023-09-19T05:12:43;2.00;;;1.83;;
10902;SDS011;5504;47.312;11.060;2023-09-19T05:15:12;2.63;;;1.80;;
10902;SDS011;5504;47.312;11.060;2023-09-19T05:17:39;4.70;;;1.77;;
10902;SDS011;5504;47.312;11.060;2023-09-19T05:20:06;3.57;;;1.60;;
10902;SDS011;5504;47.312;11.060;2023-09-19T05:22:42;2.00;;;1.70;;
10902;SDS011;5504;47.312;11.060;2023-09-19T05:25:08;1.83;;;1.73;;
10902;SDS011;5504;47.312;11.060;2023-09-19T05:27:35;2.93;;;1.90;;
10902;SDS011;5504;47.312;11.060;2023-09-19T05:30:00;3.07;;;1.70;;
10902;SDS011;5504;47.312;11.060;2023-09-19T05:32:26;1.77;;;1.67;;
10902;SDS011;5504;47.312;11.060;2023-09-19T05:34:52;2.53;;;1.80;;
10902;SDS011;5504;47.312;11.060;2023-09-19T05:37:18;3.17;;;1.50;;
10902;SDS011;5504;47.312;11.060;2023-09-19T05:39:44;2.90;;;1.60;;
10902;SDS011;5504;47.312;11.060;2023-09-19T05:42:10;2.50;;;1.60;;
10902;SDS011;5504;47.312;11.060;2023-09-19T05:44:36;2.33;;;1.60;;
10902;SDS011;5504;47.312;11.060;2023-09-19T05:47:02;3.57;;;1.80;;
10902;SDS011;5504;47.312;11.060;2023-09-19T05:49:28;1.97;;;1.73;;
10902;SDS011;5504;47.312;11.060;2023-09-19T05:51:54;2.80;;;1.63;;
10902;SDS011;5504;47.312;11.060;2023-09-19T05:54:21;2.17;;;1.80;;
10902;SDS011;5504;47.312;11.060;2023-09-19T05:56:47;3.03;;;1.87;;
10902;SDS011;5504;47.312;11.060;2023-09-19T05:59:14;3.50;;;1.90;;
10902;SDS011;5504;47.312;11.060;2023-09-19T06:01:41;2.10;;;1.70;;
10902;SDS011;5504;47.312;11.060;2023-09-19T06:04:08;1.77;;;1.50;;
10902;SDS011;5504;47.312;11.060;2023-09-19T06:06:33;2.53;;;1.70;;
10902;SDS011;5504;47.312;11.060;2023-09-19T06:09:05;3.80;;;1.87;;
10902;SDS011;5504;47.312;11.060;2023-09-19T06:11:33;2.17;;;1.50;;
10902;SDS011;5504;47.312;11.060;2023-09-19T06:14:02;1.97;;;1.80;;
10902;SDS011;5504;47.312;11.060;2023-09-19T06:16:29;1.83;;;1.70;;
10902;SDS011;5504;47.312;11.060;2023-09-19T06:18:56;2.83;;;1.50;;
10902;SDS011;5504;47.312;11.060;2023-09-19T06:21:23;1.83;;;1.50;;
10902;SDS011;5504;47.312;11.060;2023-09-19T06:23:49;1.60;;;1.50;;
10902;SDS011;5504;47.312;11.060;2023-09-19T06:26:15;2.47;;;1.60;;
10902;SDS011;5504;47.312;11.060;2023-09-19T06:28:41;1.90;;;1.70;;
10902;SDS011;5504;47.312;11.060;2023-09-19T06:31:07;1.93;;;1.70;;
10902;SDS011;5504;47.312;11.060;2023-09-19T06:33:38;2.93;;;2.00;;
10902;SDS011;5504;47.312;11.060;2023-09-19T06:36:05;3.17;;;2.00;;
10902;SDS011;5504;47.312;11.060;2023-09-19T06:38:31;2.03;;;1.80;;
10902;SDS011;5504;47.312;11.060;2023-09-19T06:40:59;2.27;;;1.87;;
10902;SDS011;5504;47.312;11.060;2023-09-19T06:43:26;2.57;;;2.30;;
10902;SDS011;5504;47.312;11.060;2023-09-19T06:45:53;2.97;;;2.10;;
10902;SDS011;5504;47.312;11.060;2023-09-19T06:48:19;2.10;;;1.90;;
10902;SDS011;5504;47.312;11.060;2023-09-19T06:50:46;2.07;;;1.87;;
10902;SDS011;5504;47.312;11.060;2023-09-19T06:53:13;1.93;;;1.70;;
10902;SDS011;5504;47.312;11.060;2023-09-19T06:55:39;1.80;;;1.60;;
10902;SDS011;5504;47.312;11.060;2023-09-19T06:58:05;1.70;;;1.60;;
10902;SDS011;5504;47.312;11.060;2023-09-19T07:00:31;3.00;;;1.67;;
10902;SDS011;5504;47.312;11.060;2023-09-19T07:03:02;1.70;;;1.60;;
10902;SDS011;5504;47.312;11.060;2023-09-19T07:05:33;2.00;;;1.27;;
10902;SDS011;5504;47.312;11.060;2023-09-19T07:08:02;1.73;;;1.33;;
10902;SDS011;5504;47.312;11.060;2023-09-19T07:10:29;1.30;;;1.20;;
10902;SDS011;5504;47.312;11.060;2023-09-19T07:12:56;1.73;;;1.30;;
10902;SDS011;5504;47.312;11.060;2023-09-19T07:15:26;1.70;;;1.35;;
10902;SDS011;5504;47.312;11.060;2023-09-19T07:17:52;2.33;;;1.60;;
10902;SDS011;5504;47.312;11.060;2023-09-19T07:20:19;1.60;;;1.35;;
10902;SDS011;5504;47.312;11.060;2023-09-19T07:22:45;1.30;;;1.20;;
10902;SDS011;5504;47.312;11.060;2023-09-19T07:25:13;1.70;;;1.30;;
10902;SDS011;5504;47.312;11.060;2023-09-19T07:27:40;1.70;;;1.33;;
10902;SDS011;5504;47.312;11.060;2023-09-19T07:30:06;2.38;;;1.90;;
10902;SDS011;5504;47.312;11.060;2023-09-19T07:32:33;3.00;;;2.60;;
10902;SDS011;5504;47.312;11.060;2023-09-19T07:35:01;3.85;;;1.50;;
10902;SDS011;5504;47.312;11.060;2023-09-19T07:37:28;1.67;;;1.40;;
10902;SDS011;5504;47.312;11.060;2023-09-19T07:39:56;1.48;;;1.30;;
10902;SDS011;5504;47.312;11.060;2023-09-19T07:42:22;1.73;;;1.30;;
10902;SDS011;5504;47.312;11.060;2023-09-19T07:44:48;1.30;;;1.20;;
10902;SDS011;5504;47.312;11.060;2023-09-19T07:47:15;1.60;;;1.20;;
10902;SDS011;5504;47.312;11.060;2023-09-19T07:49:41;2.63;;;1.45;;
10902;SDS011;5504;47.312;11.060;2023-09-19T07:52:08;1.77;;;1.50;;
10902;SDS011;5504;47.312;11.060;2023-09-19T07:54:34;1.63;;;1.40;;
10902;SDS011;5504;47.312;11.060;2023-09-19T07:57:01;1.58;;;1.48;;
10902;SDS011;5504;47.312;11.060;2023-09-19T07:59:27;1.83;;;1.50;;
10902;SDS011;5504;47.312;11.060;2023-09-19T08:01:53;2.97;;;1.60;;
10902;SDS011;5504;47.312;11.060;2023-09-19T08:04:19;2.53;;;1.80;;
10902;SDS011;5504;47.312;11.060;2023-09-19T08:06:45;2.42;;;1.83;;
10902;SDS011;5504;47.312;11.060;2023-09-19T08:09:10;1.63;;;1.52;;
10902;SDS011;5504;47.312;11.060;2023-09-19T08:11:39;1.30;;;1.20;;
10902;SDS011;5504;47.312;11.060;2023-09-19T08:14:05;1.80;;;1.50;;
10902;SDS011;5504;47.312;11.060;2023-09-19T08:16:33;1.55;;;1.20;;
10902;SDS011;5504;47.312;11.060;2023-09-19T08:18:59;2.17;;;1.40;;
10902;SDS011;5504;47.312;11.060;2023-09-19T08:21:24;1.33;;;1.20;;
10902;SDS011;5504;47.312;11.060;2023-09-19T08:23:52;1.90;;;1.33;;
10902;SDS011;5504;47.312;11.060;2023-09-19T08:26:19;1.63;;;1.27;;
10902;SDS011;5504;47.312;11.060;2023-09-19T08:28:44;1.67;;;1.35;;
10902;SDS011;5504;47.312;11.060;2023-09-19T08:31:10;1.50;;;1.40;;
10902;SDS011;5504;47.312;11.060;2023-09-19T08:33:36;2.40;;;1.35;;
10902;SDS011;5504;47.312;11.060;2023-09-19T08:36:03;1.92;;;1.30;;
10902;SDS011;5504;47.312;11.060;2023-09-19T08:38:34;1.50;;;1.10;;
10902;SDS011;5504;47.312;11.060;2023-09-19T08:41:04;2.25;;;1.30;;
10902;SDS011;5504;47.312;11.060;2023-09-19T08:43:31;1.40;;;1.30;;
10902;SDS011;5504;47.312;11.060;2023-09-19T08:48:31;1.30;;;1.20;;
10902;SDS011;5504;47.312;11.060;2023-09-19T08:51:10;1.27;;;1.15;;
10902;SDS011;5504;47.312;11.060;2023-09-19T08:56:16;1.30;;;1.20;;
10902;SDS011;5504;47.312;11.060;2023-09-19T08:58:50;1.90;;;1.25;;
10902;SDS011;5504;47.312;11.060;2023-09-19T09:01:20;1.15;;;1.05;;
10902;SDS011;5504;47.312;11.060;2023-09-19T09:03:53;1.20;;;1.10;;
10902;SDS011;5504;47.312;11.060;2023-09-19T09:06:22;1.10;;;1.00;;
10902;SDS011;5504;47.312;11.060;2023-09-19T09:08:52;1.63;;;1.10;;
10902;SDS011;5504;47.312;11.060;2023-09-19T09:11:19;1.25;;;1.10;;
10902;SDS011;5504;47.312;11.060;2023-09-19T09:13:45;1.15;;;0.82;;
10902;SDS011;5504;47.312;11.060;2023-09-19T09:16:12;1.33;;;1.20;;
10902;SDS011;5504;47.312;11.060;2023-09-19T09:18:38;2.30;;;1.30;;
10902;SDS011;5504;47.312;11.060;2023-09-19T09:21:05;1.17;;;1.08;;
10902;SDS011;5504;47.312;11.060;2023-09-19T09:23:31;1.70;;;1.02;;
10902;SDS011;5504;47.312;11.060;2023-09-19T09:25:57;3.85;;;1.33;;
10902;SDS011;5504;47.312;11.060;2023-09-19T09:28:27;3.40;;;1.40;;
10902;SDS011;5504;47.312;11.060;2023-09-19T09:30:55;3.22;;;1.23;;
10902;SDS011;5504;47.312;11.060;2023-09-19T09:33:24;2.85;;;1.10;;
10902;SDS011;5504;47.312;11.060;2023-09-19T09:35:52;1.73;;;1.38;;
10902;SDS011;5504;47.312;11.060;2023-09-19T09:38:22;1.23;;;1.10;;
10902;SDS011;5504;47.312;11.060;2023-09-19T09:40:52;1.20;;;1.10;;
10902;SDS011;5504;47.312;11.060;2023-09-19T09:43:29;1.15;;;1.05;;
10902;SDS011;5504;47.312;11.060;2023-09-19T09:46:09;2.42;;;1.20;;
10902;SDS011;5504;47.312;11.060;2023-09-19T09:48:57;2.65;;;1.30;;
10902;SDS011;5504;47.312;11.060;2023-09-19T09:52:04;2.70;;;1.40;;
10902;SDS011;5504;47.312;11.060;2023-09-19T09:54:57;1.80;;;1.13;;
10902;SDS011;5504;47.312;11.060;2023-09-19T09:57:31;1.60;;;1.30;;
10902;SDS011;5504;47.312;11.060;2023-09-19T09:59:59;1.50;;;1.17;;
10902;SDS011;5504;47.312;11.060;2023-09-19T10:02:41;2.05;;;1.30;;
10902;SDS011;5504;47.312;11.060;2023-09-19T10:05:16;1.52;;;1.13;;
10902;SDS011;5504;47.312;11.060;2023-09-19T10:07:51;1.77;;;1.40;;
10902;SDS011;5504;47.312;11.060;2023-09-19T10:13:08;1.70;;;1.20;;
10902;SDS011;5504;47.312;11.060;2023-09-19T10:15:49;2.35;;;1.20;;
10902;SDS011;5504;47.312;11.060;2023-09-19T10:20:47;2.45;;;1.20;;
10902;SDS011;5504;47.312;11.060;2023-09-19T10:23:14;1.52;;;1.27;;
10902;SDS011;5504;47.312;11.060;2023-09-19T10:25:47;2.28;;;1.27;;
10902;SDS011;5504;47.312;11.060;2023-09-19T10:28:14;1.67;;;1.23;;
10902;SDS011;5504;47.312;11.060;2023-09-19T10:30:42;2.63;;;1.20;;
10902;SDS011;5504;47.312;11.060;2023-09-19T10:33:16;2.42;;;1.35;;
10902;SDS011;5504;47.312;11.060;2023-09-19T10:35:46;2.28;;;1.30;;
10902;SDS011;5504;47.312;11.060;2023-09-19T10:38:23;1.73;;;1.25;;
10902;SDS011;5504;47.312;11.060;2023-09-19T10:40:50;1.55;;;1.30;;
10902;SDS011;5504;47.312;11.060;2023-09-19T10:43:18;1.38;;;1.27;;
10902;SDS011;5504;47.312;11.060;2023-09-19T10:45:46;1.70;;;1.40;;
10902;SDS011;5504;47.312;11.060;2023-09-19T10:48:18;1.63;;;1.20;;
10902;SDS011;5504;47.312;11.060;2023-09-19T10:53:43;1.70;;;1.40;;
10902;SDS011;5504;47.312;11.060;2023-09-19T10:56:32;2.50;;;1.30;;
10902;SDS011;5504;47.312;11.060;2023-09-19T10:59:08;1.65;;;1.38;;
10902;SDS011;5504;47.312;11.060;2023-09-19T11:01:45;1.50;;;1.30;;
10902;SDS011;5504;47.312;11.060;2023-09-19T11:09:52;2.08;;;1.30;;
10902;SDS011;5504;47.312;11.060;2023-09-19T11:14:57;1.45;;;1.30;;
10902;SDS011;5504;47.312;11.060;2023-09-19T11:30:37;1.40;;;1.30;;
10902;SDS011;5504;47.312;11.060;2023-09-19T11:46:34;2.10;;;1.30;;
10902;SDS011;5504;47.312;11.060;2023-09-19T11:49:28;1.33;;;1.23;;
10902;SDS011;5504;47.312;11.060;2023-09-19T11:51:56;1.30;;;1.20;;
10902;SDS011;5504;47.312;11.060;2023-09-19T11:54:30;1.42;;;1.20;;
10902;SDS011;5504;47.312;11.060;2023-09-19T11:56:57;1.40;;;1.30;;
10902;SDS011;5504;47.312;11.060;2023-09-19T11:59:24;1.27;;;1.17;;
10902;SDS011;5504;47.312;11.060;2023-09-19T12:01:54;1.15;;;1.10;;
10902;SDS011;5504;47.312;11.060;2023-09-19T12:06:58;2.10;;;1.23;;
10902;SDS011;5504;47.312;11.060;2023-09-19T12:09:24;1.55;;;1.08;;
10902;SDS011;5504;47.312;11.060;2023-09-19T12:11:50;1.80;;;1.10;;
10902;SDS011;5504;47.312;11.060;2023-09-19T12:14:23;1.35;;;1.15;;
10902;SDS011;5504;47.312;11.060;2023-09-19T12:16:51;1.48;;;1.20;;
10902;SDS011;5504;47.312;11.060;2023-09-19T12:19:20;1.27;;;1.13;;
10902;SDS011;5504;47.312;11.060;2023-09-19T12:24:29;1.75;;;1.30;;
10902;SDS011;5504;47.312;11.060;2023-09-19T12:26:59;1.33;;;1.23;;
10902;SDS011;5504;47.312;11.060;2023-09-19T12:29:29;1.20;;;1.10;;
10902;SDS011;5504;47.312;11.060;2023-09-19T12:31:58;1.45;;;1.20;;
10902;SDS011;5504;47.312;11.060;2023-09-19T12:34:29;1.30;;;1.20;;
10902;SDS011;5504;47.312;11.060;2023-09-19T12:39:44;1.35;;;1.00;;
10902;SDS011;5504;47.312;11.060;2023-09-19T12:42:22;1.30;;;1.08;;
10902;SDS011;5504;47.312;11.060;2023-09-19T12:44:49;1.20;;;1.10;;
10902;SDS011;5504;47.312;11.060;2023-09-19T12:47:23;1.33;;;1.17;;
10902;SDS011;5504;47.312;11.060;2023-09-19T12:50:05;1.10;;;1.00;;
10902;SDS011;5504;47.312;11.060;2023-09-19T12:52:47;1.60;;;1.02;;
10902;SDS011;5504;47.312;11.060;2023-09-19T12:55:19;1.40;;;1.13;;
10902;SDS011;5504;47.312;11.060;2023-09-19T12:57:59;1.23;;;1.13;;
10902;SDS011;5504;47.312;11.060;2023-09-19T13:00:33;1.45;;;0.90;;
10902;SDS011;5504;47.312;11.060;2023-09-19T13:03:16;1.20;;;1.10;;
10902;SDS011;5504;47.312;11.060;2023-09-19T13:06:01;2.58;;;1.02;;
10902;SDS011;5504;47.312;11.060;2023-09-19T13:08:30;1.20;;;1.00;;
10902;SDS011;5504;47.312;11.060;2023-09-19T13:11:06;1.38;;;1.00;;
10902;SDS011;5504;47.312;11.060;2023-09-19T13:16:20;1.30;;;1.00;;
10902;SDS011;5504;47.312;11.060;2023-09-19T13:21:34;1.40;;;1.30;;
10902;SDS011;5504;47.312;11.060;2023-09-19T13:27:05;1.52;;;1.17;;
10902;SDS011;5504;47.312;11.060;2023-09-19T13:29:31;1.02;;;1.00;;
10902;SDS011;5504;47.312;11.060;2023-09-19T13:31:57;1.08;;;1.00;;
10902;SDS011;5504;47.312;11.060;2023-09-19T13:34:23;1.20;;;1.10;;
10902;SDS011;5504;47.312;11.060;2023-09-19T13:36:49;1.08;;;0.98;;
10902;SDS011;5504;47.312;11.060;2023-09-19T13:39:16;2.05;;;1.00;;
10902;SDS011;5504;47.312;11.060;2023-09-19T13:41:44;0.90;;;0.90;;
10902;SDS011;5504;47.312;11.060;2023-09-19T13:44:11;0.80;;;0.80;;
10902;SDS011;5504;47.312;11.060;2023-09-19T13:46:37;0.85;;;0.85;;
10902;SDS011;5504;47.312;11.060;2023-09-19T13:49:03;0.95;;;0.90;;
10902;SDS011;5504;47.312;11.060;2023-09-19T13:51:30;0.95;;;0.80;;
10902;SDS011;5504;47.312;11.060;2023-09-19T13:53:56;0.90;;;0.80;;
10902;SDS011;5504;47.312;11.060;2023-09-19T13:56:21;0.70;;;0.70;;
10902;SDS011;5504;47.312;11.060;2023-09-19T13:58:47;0.77;;;0.70;;
10902;SDS011;5504;47.312;11.060;2023-09-19T14:01:13;0.82;;;0.80;;
10902;SDS011;5504;47.312;11.060;2023-09-19T14:03:39;0.85;;;0.70;;
10902;SDS011;5504;47.312;11.060;2023-09-19T14:06:11;1.33;;;0.70;;
10902;SDS011;5504;47.312;11.060;2023-09-19T14:08:37;1.00;;;0.90;;
10902;SDS011;5504;47.312;11.060;2023-09-19T14:11:07;0.80;;;0.80;;
10902;SDS011;5504;47.312;11.060;2023-09-19T14:13:34;0.90;;;0.80;;
10902;SDS011;5504;47.312;11.060;2023-09-19T14:16:06;0.70;;;0.70;;
10902;SDS011;5504;47.312;11.060;2023-09-19T14:18:33;0.90;;;0.90;;
10902;SDS011;5504;47.312;11.060;2023-09-19T14:21:06;0.90;;;0.80;;
10902;SDS011;5504;47.312;11.060;2023-09-19T14:23:36;0.80;;;0.80;;
10902;SDS011;5504;47.312;11.060;2023-09-19T14:26:07;1.13;;;0.90;;
10902;SDS011;5504;47.312;11.060;2023-09-19T14:28:34;0.60;;;0.60;;
10902;SDS011;5504;47.312;11.060;2023-09-19T14:31:06;0.70;;;0.70;;
10902;SDS011;5504;47.312;11.060;2023-09-19T14:33:33;1.08;;;0.80;;
10902;SDS011;5504;47.312;11.060;2023-09-19T14:36:01;0.70;;;0.70;;
10902;SDS011;5504;47.312;11.060;2023-09-19T14:38:28;0.85;;;0.70;;
10902;SDS011;5504;47.312;11.060;2023-09-19T14:41:04;0.85;;;0.85;;
10902;SDS011;5504;47.312;11.060;2023-09-19T14:43:31;1.25;;;0.90;;
10902;SDS011;5504;47.312;11.060;2023-09-19T14:46:04;0.80;;;0.80;;
10902;SDS011;5504;47.312;11.060;2023-09-19T14:48:32;0.82;;;0.70;;
10902;SDS011;5504;47.312;11.060;2023-09-19T14:51:02;1.10;;;0.80;;
10902;SDS011;5504;47.312;11.060;2023-09-19T14:53:29;0.90;;;0.90;;
10902;SDS011;5504;47.312;11.060;2023-09-19T14:55:55;1.15;;;0.60;;
10902;SDS011;5504;47.312;11.060;2023-09-19T14:58:21;1.10;;;0.70;;
10902;SDS011;5504;47.312;11.060;2023-09-19T15:00:47;0.95;;;0.55;;
10902;SDS011;5504;47.312;11.060;2023-09-19T15:03:12;0.60;;;0.60;;
10902;SDS011;5504;47.312;11.060;2023-09-19T15:05:43;0.88;;;0.65;;
10902;SDS011;5504;47.312;11.060;2023-09-19T15:08:08;1.40;;;0.68;;
10902;SDS011;5504;47.312;11.060;2023-09-19T15:10:34;0.70;;;0.60;;
10902;SDS011;5504;47.312;11.060;2023-09-19T15:13:00;0.82;;;0.70;;
10902;SDS011;5504;47.312;11.060;2023-09-19T15:15:25;0.73;;;0.63;;
10902;SDS011;5504;47.312;11.060;2023-09-19T15:17:51;0.60;;;0.60;;
10902;SDS011;5504;47.312;11.060;2023-09-19T15:20:16;1.13;;;0.60;;
10902;SDS011;5504;47.312;11.060;2023-09-19T15:22:42;0.57;;;0.57;;
10902;SDS011;5504;47.312;11.060;2023-09-19T15:25:09;0.50;;;0.50;;
10902;SDS011;5504;47.312;11.060;2023-09-19T15:27:35;0.60;;;0.60;;
10902;SDS011;5504;47.312;11.060;2023-09-19T15:30:02;0.50;;;0.50;;
10902;SDS011;5504;47.312;11.060;2023-09-19T15:32:29;0.60;;;0.57;;
10902;SDS011;5504;47.312;11.060;2023-09-19T15:34:56;0.50;;;0.50;;
10902;SDS011;5504;47.312;11.060;2023-09-19T15:37:21;0.70;;;0.52;;
10902;SDS011;5504;47.312;11.060;2023-09-19T15:39:47;0.55;;;0.55;;
10902;SDS011;5504;47.312;11.060;2023-09-19T15:42:13;1.88;;;0.60;;
10902;SDS011;5504;47.312;11.060;2023-09-19T15:44:41;0.95;;;0.60;;
10902;SDS011;5504;47.312;11.060;2023-09-19T15:47:09;1.27;;;0.75;;
10902;SDS011;5504;47.312;11.060;2023-09-19T15:49:35;1.05;;;0.60;;
10902;SDS011;5504;47.312;11.060;2023-09-19T15:52:00;1.17;;;0.68;;
10902;SDS011;5504;47.312;11.060;2023-09-19T15:54:26;0.60;;;0.60;;
10902;SDS011;5504;47.312;11.060;2023-09-19T15:56:52;0.75;;;0.75;;
10902;SDS011;5504;47.312;11.060;2023-09-19T15:59:20;1.05;;;0.80;;
10902;SDS011;5504;47.312;11.060;2023-09-19T16:01:45;0.70;;;0.60;;
10902;SDS011;5504;47.312;11.060;2023-09-19T16:04:11;1.33;;;0.73;;
10902;SDS011;5504;47.312;11.060;2023-09-19T16:06:38;1.67;;;0.88;;
10902;SDS011;5504;47.312;11.060;2023-09-19T16:09:04;1.08;;;0.98;;
10902;SDS011;5504;47.312;11.060;2023-09-19T16:11:34;0.77;;;0.70;;
10902;SDS011;5504;47.312;11.060;2023-09-19T16:14:02;1.00;;;0.70;;
10902;SDS011;5504;47.312;11.060;2023-09-19T16:16:29;1.85;;;0.80;;
10902;SDS011;5504;47.312;11.060;2023-09-19T16:18:57;0.70;;;0.70;;
10902;SDS011;5504;47.312;11.060;2023-09-19T16:21:28;0.60;;;0.60;;